KCRE/CRE METAR and TAF weather

Enter ICAO airport designator
Station Type Date Time Source
KCRE METAR 2021/05/14 21:53 UTC NOAA

KCRE 142153Z 13010KT 10SM CLR 21/07 A3020 RMK AO1 SLP226 T02060072


Station Type Date Time Source
KCRE Decoded METAR 2021/05/14 21:53 UTC NOAA

N. MYRTLE BCH.GRAND STRAND, SC, United States (KCRE) 33-49N 078-43W 10M
May 14, 2021 - 05:53 PM EDT / 2021.05.14 2153 UTC
Wind: from the SE (130 degrees) at 12 MPH (10 KT):0
Visibility: 10 mile(s):0
Sky conditions: clear
Temperature: 69.1 F (20.6 C)
Dew Point: 45.0 F (7.2 C)
Relative Humidity: 41%
Pressure (altimeter): 30.2 in. Hg (1022 hPa)
ob: KCRE 142153Z 13010KT 10SM CLR 21/07 A3020 RMK AO1 SLP226 T02060072
cycle: 22

Station Type Date Time Source
KCRE TAF 2021/05/14 18:21 UTC NOAA

TAF KCRE 141720Z 1418/1518 05012G20KT P6SM SKC
FM142000 09011KT P6SM SKC
FM150500 06004KT P6SM SKC
FM151700 09008KT P6SM SKC

Example: see airport list